createdAt,value
2022-08-10T00:01:51.372Z,100859.59
2022-08-10T00:04:23.157Z,100859.59
2022-08-10T00:06:53.047Z,100866.13
2022-08-10T00:09:23.347Z,100864.63
2022-08-10T00:11:52.183Z,100872.28
2022-08-10T00:14:21.955Z,100866.06
2022-08-10T00:16:50.161Z,100863.31
2022-08-10T00:19:19.252Z,100863.84
2022-08-10T00:21:49.550Z,100865.09
2022-08-10T00:24:18.733Z,100864.56
2022-08-10T00:27:52.951Z,100863.59
2022-08-10T00:29:37.333Z,100865.69
2022-08-10T00:32:06.160Z,100860.25
2022-08-10T00:34:36.108Z,100857.19
2022-08-10T00:37:04.696Z,100854.13
2022-08-10T00:39:35.941Z,100851.22
2022-08-10T00:42:08.672Z,100846.22
2022-08-10T00:44:38.381Z,100854.16
2022-08-10T00:47:07.483Z,100853.22
2022-08-10T00:49:50.060Z,100851.25
2022-08-10T00:52:20.033Z,100855.72
2022-08-10T00:54:49.231Z,100856.53
2022-08-10T00:57:20.661Z,100855.44
2022-08-10T00:59:59.371Z,100850.56
2022-08-10T01:02:33.304Z,100844.19
2022-08-10T01:05:03.228Z,100839.44
2022-08-10T01:07:52.173Z,100840.19
2022-08-10T01:10:31.247Z,100844.72
2022-08-10T01:13:07.687Z,100840.84
2022-08-10T01:15:44.115Z,100845.72
2022-08-10T01:18:19.731Z,100839.59
2022-08-10T01:21:10.147Z,100832.38
2022-08-10T01:24:06.750Z,100840.19
2022-08-10T01:27:08.501Z,100834.16
2022-08-10T01:29:50.153Z,100832.38
2022-08-10T01:32:25.657Z,100828.06
2022-08-10T01:34:58.029Z,100828.06
2022-08-10T01:37:33.500Z,100835.97
2022-08-10T01:40:05.825Z,100829.91
2022-08-10T01:42:37.311Z,100840.28
2022-08-10T01:45:11.043Z,100834.91
2022-08-10T01:47:59.824Z,100847.91
2022-08-10T01:50:31.922Z,100846.41
2022-08-10T01:53:06.140Z,100850.00
2022-08-10T01:55:36.422Z,100854.03
2022-08-10T01:58:06.467Z,100850.69
2022-08-10T02:00:40.038Z,100854.00
2022-08-10T02:03:10.019Z,100850.69
2022-08-10T02:05:41.262Z,100855.13
2022-08-10T02:08:12.578Z,100859.94
2022-08-10T02:10:42.130Z,100866.47
2022-08-10T02:13:11.081Z,100859.25
2022-08-10T02:16:01.465Z,100855.66
2022-08-10T02:18:32.241Z,100852.03
2022-08-10T02:21:03.508Z,100853.16
2022-08-10T02:23:34.027Z,100853.31
2022-08-10T02:26:04.585Z,100866.75
2022-08-10T02:28:35.001Z,100865.47
2022-08-10T02:31:08.809Z,100860.63
2022-08-10T02:33:56.801Z,100859.72
2022-08-10T02:36:28.955Z,100856.97
2022-08-10T02:39:00.935Z,100857.25
2022-08-10T02:45:12.567Z,100859.31
2022-08-10T02:45:19.190Z,100866.94
2022-08-10T02:47:26.573Z,100866.38
2022-08-10T02:50:03.021Z,100877.84
2022-08-10T02:52:42.122Z,100874.00
2022-08-10T02:55:18.782Z,100876.31
2022-08-10T02:58:12.534Z,100873.81
2022-08-10T03:00:44.720Z,100873.38
2022-08-10T03:03:21.135Z,100876.13
2022-08-10T03:05:52.346Z,100873.94
2022-08-10T03:08:25.692Z,100871.59
2022-08-10T03:10:55.997Z,100867.72
2022-08-10T03:13:25.504Z,100871.13
2022-08-10T03:15:55.473Z,100880.59
2022-08-10T03:18:26.029Z,100881.81
2022-08-10T03:20:56.044Z,100880.28
2022-08-10T03:23:26.376Z,100872.13
2022-08-10T03:25:56.780Z,100880.41
2022-08-10T03:28:26.696Z,100878.78
2022-08-10T03:30:58.597Z,100875.59
2022-08-10T03:33:32.211Z,100871.00
2022-08-10T03:36:39.932Z,100874.53
2022-08-10T03:38:51.852Z,100864.16
2022-08-10T03:41:25.403Z,100861.53
2022-08-10T03:43:59.475Z,100861.47
2022-08-10T03:46:29.236Z,100865.75
2022-08-10T03:49:03.241Z,100856.22
2022-08-10T03:51:33.639Z,100860.75
2022-08-10T03:54:07.198Z,100865.22
2022-08-10T03:56:37.910Z,100859.22
2022-08-10T03:59:07.961Z,100856.34
2022-08-10T04:02:45.312Z,100867.06
2022-08-10T04:04:28.581Z,100869.22
2022-08-10T04:06:58.777Z,100858.28
2022-08-10T04:09:53.945Z,100870.91
2022-08-10T04:12:19.097Z,100869.09
2022-08-10T04:14:52.962Z,100870.63
2022-08-10T04:18:03.876Z,100863.47
2022-08-10T04:20:19.720Z,100870.16
2022-08-10T04:22:52.251Z,100874.63
2022-08-10T04:25:21.982Z,100881.16
2022-08-10T04:27:51.040Z,100879.25
2022-08-10T04:30:19.044Z,100873.03
2022-08-10T04:32:50.305Z,100878.84
2022-08-10T04:35:21.944Z,100878.78
2022-08-10T04:37:52.105Z,100889.19
2022-08-10T04:40:29.332Z,100887.69
2022-08-10T04:43:11.615Z,100889.69
2022-08-10T04:45:49.613Z,100897.31
2022-08-10T04:48:40.639Z,100889.69
2022-08-10T04:51:17.589Z,100892.16
2022-08-10T04:54:05.808Z,100890.50
2022-08-10T04:56:40.277Z,100883.69
2022-08-10T04:59:12.232Z,100891.03
2022-08-10T05:02:22.434Z,100888.66
2022-08-10T05:04:34.789Z,100895.22
2022-08-10T05:07:10.706Z,100898.53
2022-08-10T05:10:01.517Z,100899.66
2022-08-10T05:12:27.369Z,100891.31
2022-08-10T05:14:55.714Z,100893.69
2022-08-10T05:17:24.708Z,100904.25
2022-08-10T05:20:04.559Z,100896.31
2022-08-10T05:22:39.739Z,100890.47
2022-08-10T05:25:11.484Z,100898.34
2022-08-10T05:27:40.815Z,100900.03
2022-08-10T05:30:11.017Z,100903.81
2022-08-10T05:32:57.381Z,100901.41
2022-08-10T05:35:28.122Z,100892.91
2022-08-10T05:38:12.373Z,100900.94
2022-08-10T05:40:46.674Z,100909.03
2022-08-10T05:43:18.614Z,100910.66
2022-08-10T05:46:18.593Z,100908.44
2022-08-10T05:48:55.138Z,100914.06
2022-08-10T05:51:26.080Z,100914.16
2022-08-10T05:54:04.161Z,100905.66
2022-08-10T05:56:55.642Z,100913.59
2022-08-10T06:00:33.004Z,100914.28
2022-08-10T06:02:33.058Z,100916.44
2022-08-10T06:05:08.106Z,100921.25
2022-08-10T06:07:38.492Z,100912.97
2022-08-10T06:10:12.571Z,100920.59
2022-08-10T06:12:53.929Z,100914.41
2022-08-10T06:15:50.274Z,100923.75
2022-08-10T06:18:15.924Z,100917.13
2022-08-10T06:20:44.552Z,100921.28
2022-08-10T06:23:13.590Z,100924.81
2022-08-10T06:26:11.421Z,100922.59
2022-08-10T06:28:35.226Z,100923.47
2022-08-10T06:31:05.408Z,100919.84
2022-08-10T06:33:36.311Z,100918.34
2022-08-10T06:36:07.150Z,100927.47
2022-08-10T06:38:37.521Z,100926.94
2022-08-10T06:41:18.088Z,100923.81
2022-08-10T06:43:55.085Z,100916.69
2022-08-10T06:46:24.669Z,100924.41
2022-08-10T06:48:55.462Z,100922.41
2022-08-10T06:51:26.998Z,100929.03
2022-08-10T06:53:59.622Z,100931.84
2022-08-10T06:56:37.825Z,100933.97
2022-08-10T06:59:21.396Z,100939.28
2022-08-10T07:01:54.772Z,100932.50
2022-08-10T07:04:32.478Z,100925.47
2022-08-10T07:07:04.487Z,100913.31
2022-08-10T07:09:36.577Z,100925.19
2022-08-10T07:12:09.306Z,100927.25
2022-08-10T07:14:43.607Z,100933.09
2022-08-10T07:17:16.507Z,100930.84
2022-08-10T07:19:49.524Z,100945.59
2022-08-10T07:23:01.821Z,100941.38
2022-08-10T07:25:10.331Z,100939.88
2022-08-10T07:27:59.955Z,100945.66
2022-08-10T07:30:31.650Z,100941.69
2022-08-10T07:33:01.537Z,100950.19
2022-08-10T07:35:41.738Z,100940.47
2022-08-10T07:38:21.888Z,100955.78
2022-08-10T07:40:51.876Z,100948.78
2022-08-10T07:43:24.911Z,100944.19
2022-08-10T07:45:53.171Z,100948.84
2022-08-10T07:48:27.078Z,100950.41
2022-08-10T07:50:59.549Z,100957.63
2022-08-10T07:53:33.213Z,100952.75
2022-08-10T07:56:16.977Z,100952.75
2022-08-10T07:58:59.171Z,100955.94
2022-08-10T08:01:33.056Z,100963.88
2022-08-10T08:04:11.568Z,100962.25
2022-08-10T08:06:44.260Z,100960.59
2022-08-10T08:09:12.931Z,100957.06
2022-08-10T08:11:44.616Z,100965.53
2022-08-10T08:14:16.920Z,100967.59
2022-08-10T08:16:48.383Z,100969.19
2022-08-10T08:19:37.745Z,100966.63
2022-08-10T08:24:10.408Z,100959.75
2022-08-10T08:24:57.957Z,100972.75
2022-08-10T08:27:28.477Z,100967.13
2022-08-10T08:29:58.804Z,100962.19
2022-08-10T08:32:33.287Z,100964.25
2022-08-10T08:35:10.768Z,100959.88
2022-08-10T08:38:28.923Z,100959.00
2022-08-10T08:40:30.308Z,100955.59
2022-08-10T08:43:21.415Z,100958.03
2022-08-10T08:46:15.949Z,100944.00
2022-08-10T08:49:01.726Z,100943.16
2022-08-10T08:52:09.324Z,100942.97
2022-08-10T08:54:40.159Z,100931.84
2022-08-10T08:57:22.937Z,100937.56
2022-08-10T09:00:13.640Z,100933.47
2022-08-10T09:03:08.805Z,100936.22
2022-08-10T09:05:58.670Z,100937.56
2022-08-10T09:08:45.963Z,100935.91
2022-08-10T09:11:29.848Z,100940.28
2022-08-10T09:14:02.937Z,100932.38
2022-08-10T09:16:44.436Z,100925.59
2022-08-10T09:19:36.146Z,100934.06
2022-08-10T09:22:18.440Z,100929.88
2022-08-10T09:24:55.614Z,100925.13
2022-08-10T09:27:27.737Z,100920.25
2022-08-10T09:29:59.042Z,100918.34
2022-08-10T09:36:17.095Z,100908.31
2022-08-10T09:36:28.668Z,100916.72
2022-08-10T09:38:38.352Z,100913.81
2022-08-10T09:41:21.085Z,100911.94
2022-08-10T09:43:56.313Z,100916.22
2022-08-10T09:46:35.606Z,100907.63
2022-08-10T09:49:16.191Z,100896.72
2022-08-10T09:52:14.607Z,100905.47
2022-08-10T09:55:06.779Z,100896.91
2022-08-10T09:57:57.054Z,100884.78
2022-08-10T10:00:33.316Z,100887.81
2022-08-10T10:03:17.009Z,100885.38
2022-08-10T10:05:54.651Z,100885.94
2022-08-10T10:08:31.769Z,100885.88
2022-08-10T10:11:18.274Z,100883.22
2022-08-10T10:14:03.881Z,100887.56
2022-08-10T10:16:54.783Z,100880.53
2022-08-10T10:19:37.272Z,100881.75
2022-08-10T10:22:26.174Z,100872.28
2022-08-10T10:25:19.998Z,100880.53
2022-08-10T10:27:59.506Z,100879.00
2022-08-10T10:30:36.581Z,100881.78
2022-08-10T10:33:14.808Z,100874.50
2022-08-10T10:35:50.281Z,100863.44
2022-08-10T10:38:20.024Z,100854.81
2022-08-10T10:41:01.775Z,100857.81
2022-08-10T10:43:45.975Z,100867.22
2022-08-10T10:46:26.112Z,100868.72
2022-08-10T10:49:05.446Z,100867.16
2022-08-10T10:51:39.129Z,100867.63
2022-08-10T10:54:13.160Z,100872.84
2022-08-10T10:56:53.084Z,100854.09
2022-08-10T10:59:53.621Z,100847.34
2022-08-10T11:02:32.627Z,100840.50
2022-08-10T11:05:15.137Z,100842.94
2022-08-10T11:07:53.140Z,100840.34
2022-08-10T11:10:32.064Z,100830.91
2022-08-10T11:14:26.525Z,100826.91
2022-08-10T11:16:19.286Z,100832.94
2022-08-10T11:18:56.233Z,100825.72
2022-08-10T11:21:47.003Z,100819.06
2022-08-10T11:24:47.263Z,100815.91
2022-08-10T11:27:21.894Z,100804.94
2022-08-10T11:30:00.180Z,100814.41
2022-08-10T11:32:42.959Z,100807.41
2022-08-10T11:35:21.636Z,100820.13
2022-08-10T11:38:34.719Z,100822.03
2022-08-10T11:40:54.212Z,100820.75
2022-08-10T11:43:27.500Z,100818.03
2022-08-10T11:46:08.111Z,100831.19
2022-08-10T11:48:52.872Z,100825.13
2022-08-10T11:51:29.779Z,100819.03
2022-08-10T11:54:04.819Z,100820.63
2022-08-10T11:56:40.009Z,100812.84
2022-08-10T11:59:26.676Z,100811.72
2022-08-10T12:01:57.905Z,100817.31
2022-08-10T12:04:28.261Z,100804.41
2022-08-10T12:06:57.733Z,100809.06
2022-08-10T12:10:08.686Z,100829.75
2022-08-10T12:12:17.759Z,100808.97
2022-08-10T12:14:52.428Z,100820.84
2022-08-10T12:17:28.080Z,100814.59
2022-08-10T12:20:03.970Z,100801.72
2022-08-10T12:22:37.769Z,100796.75
2022-08-10T12:25:10.324Z,100784.72
2022-08-10T12:27:43.235Z,100779.09
2022-08-10T12:30:15.850Z,100785.34
2022-08-10T12:32:56.067Z,100783.31
2022-08-10T12:35:28.817Z,100772.28
2022-08-10T12:38:09.746Z,100774.03
2022-08-10T12:40:44.625Z,100779.63
2022-08-10T12:44:06.787Z,100783.78
2022-08-10T12:46:19.537Z,100765.56
2022-08-10T12:48:58.113Z,100756.59
2022-08-10T12:51:30.542Z,100760.41
2022-08-10T12:54:08.840Z,100748.53
2022-08-10T12:56:40.147Z,100759.59
2022-08-10T12:59:12.434Z,100761.06
2022-08-10T13:02:07.927Z,100753.16
2022-08-10T13:04:34.729Z,100749.72
2022-08-10T13:07:04.343Z,100755.94
2022-08-10T13:09:34.637Z,100744.75
2022-08-10T13:12:38.460Z,100749.66
2022-08-10T13:15:43.167Z,100737.69
2022-08-10T13:18:18.767Z,100730.19
2022-08-10T13:20:53.514Z,100730.69
2022-08-10T13:23:24.421Z,100727.53
2022-08-10T13:25:55.402Z,100733.38
2022-08-10T13:28:37.880Z,100723.84
2022-08-10T13:31:16.853Z,100718.78
2022-08-10T13:34:39.032Z,100714.44
2022-08-10T13:36:42.661Z,100712.47
2022-08-10T13:39:12.701Z,100709.16
2022-08-10T13:41:43.731Z,100703.22
2022-08-10T13:44:16.777Z,100703.47
2022-08-10T13:46:50.795Z,100705.72
2022-08-10T13:49:21.800Z,100697.31
2022-08-10T13:51:55.093Z,100687.72
2022-08-10T13:54:28.904Z,100692.81
2022-08-10T13:56:58.715Z,100696.28
2022-08-10T14:00:34.103Z,100690.72
2022-08-10T14:02:26.357Z,100682.59
2022-08-10T14:04:57.031Z,100665.09
2022-08-10T14:07:28.818Z,100666.69
2022-08-10T14:10:04.893Z,100671.69
2022-08-10T14:12:33.822Z,100681.34
2022-08-10T14:15:03.534Z,100674.31
2022-08-10T14:17:34.482Z,100667.25
2022-08-10T14:20:10.548Z,100665.13
2022-08-10T14:22:43.005Z,100649.72
2022-08-10T14:25:13.738Z,100638.88
2022-08-10T14:28:03.485Z,100638.13
2022-08-10T14:30:34.279Z,100651.59
2022-08-10T14:33:04.948Z,100645.88
2022-08-10T14:36:22.520Z,100635.75
2022-08-10T14:38:29.888Z,100649.16
2022-08-10T14:41:01.588Z,100638.63
2022-08-10T14:43:35.915Z,100652.47
2022-08-10T14:46:06.510Z,100644.47
2022-08-10T14:48:40.262Z,100648.72
2022-08-10T14:51:10.868Z,100659.22
2022-08-10T14:53:44.284Z,100640.38
2022-08-10T14:56:16.012Z,100656.38
2022-08-10T14:59:05.285Z,100645.94
2022-08-10T15:02:00.372Z,100629.47
2022-08-10T15:04:28.888Z,100645.06
2022-08-10T15:07:01.172Z,100649.72
2022-08-10T15:10:00.565Z,100650.88
2022-08-10T15:12:33.047Z,100652.25
2022-08-10T15:15:03.689Z,100637.91
2022-08-10T15:17:37.567Z,100630.28
2022-08-10T15:20:13.481Z,100633.16
2022-08-10T15:22:50.443Z,100626.81
2022-08-10T15:25:25.012Z,100626.66
2022-08-10T15:28:05.053Z,100635.41
2022-08-10T15:30:40.919Z,100626.44
2022-08-10T15:33:57.651Z,100625.00
2022-08-10T15:36:38.748Z,100621.09
2022-08-10T15:39:14.130Z,100618.69
2022-08-10T15:41:58.876Z,100608.38
2022-08-10T15:44:39.416Z,100601.47
2022-08-10T15:47:12.178Z,100600.09
2022-08-10T15:49:49.483Z,100599.59
2022-08-10T15:52:39.687Z,100606.00
2022-08-10T15:55:43.288Z,100602.50
2022-08-10T15:58:11.829Z,100598.75
2022-08-10T16:00:48.287Z,100593.56
2022-08-10T16:03:24.485Z,100591.53
2022-08-10T16:06:01.721Z,100589.97
2022-08-10T16:08:55.745Z,100584.91
2022-08-10T16:11:37.595Z,100579.25
2022-08-10T16:14:20.474Z,100581.72
2022-08-10T16:16:57.272Z,100579.19
2022-08-10T16:19:28.652Z,100571.41
2022-08-10T16:22:00.199Z,100579.38
2022-08-10T16:24:32.855Z,100571.75
2022-08-10T16:27:04.923Z,100575.69
2022-08-10T16:29:56.057Z,100570.09
2022-08-10T16:32:26.613Z,100561.53
2022-08-10T16:34:56.515Z,100560.81
2022-08-10T16:37:57.558Z,100561.06
2022-08-10T16:40:22.314Z,100565.41
2022-08-10T16:42:52.534Z,100569.03
2022-08-10T16:45:30.249Z,100571.31
2022-08-10T16:47:59.936Z,100568.69
2022-08-10T16:50:31.289Z,100558.66
2022-08-10T16:53:03.499Z,100558.09
2022-08-10T16:55:49.505Z,100560.56
2022-08-10T16:58:25.669Z,100552.13
2022-08-10T17:01:01.670Z,100560.06
2022-08-10T17:04:05.623Z,100553.75
2022-08-10T17:06:29.772Z,100556.47
2022-08-10T17:09:00.697Z,100546.84
2022-08-10T17:11:31.567Z,100542.34
2022-08-10T17:14:02.319Z,100543.16
2022-08-10T17:16:37.146Z,100547.94
2022-08-10T17:19:11.838Z,100548.84
2022-08-10T17:21:51.484Z,100549.78
2022-08-10T17:24:25.188Z,100544.78
2022-08-10T17:26:53.359Z,100544.16
2022-08-10T17:29:58.859Z,100536.00
2022-08-10T17:32:22.096Z,100532.59
2022-08-10T17:34:57.293Z,100537.75
2022-08-10T17:37:28.736Z,100530.78
2022-08-10T17:40:00.660Z,100537.47
2022-08-10T17:42:29.377Z,100534.41
2022-08-10T17:44:59.607Z,100532.28
2022-08-10T17:47:29.958Z,100539.06
2022-08-10T17:49:59.971Z,100533.38
2022-08-10T17:52:32.330Z,100536.47
2022-08-10T17:55:10.041Z,100536.63
2022-08-10T17:57:40.636Z,100538.38
2022-08-10T18:00:14.893Z,100537.22
2022-08-10T18:02:48.119Z,100533.47
2022-08-10T18:05:16.520Z,100541.16
2022-08-10T18:07:48.186Z,100538.75
2022-08-10T18:10:20.514Z,100536.69
2022-08-10T18:12:50.761Z,100537.28
2022-08-10T18:15:22.245Z,100542.19
2022-08-10T18:17:59.126Z,100536.78
2022-08-10T18:20:34.707Z,100542.69
2022-08-10T18:23:04.806Z,100539.84
2022-08-10T18:25:36.188Z,100535.81
2022-08-10T18:28:09.128Z,100538.06
2022-08-10T18:30:46.329Z,100533.09
2022-08-10T18:33:17.385Z,100540.28
2022-08-10T18:35:47.250Z,100536.97
2022-08-10T18:38:17.239Z,100547.09
2022-08-10T18:40:53.800Z,100544.13
2022-08-10T18:44:06.075Z,100541.91
2022-08-10T18:46:19.450Z,100540.03
2022-08-10T18:48:53.228Z,100536.75
2022-08-10T18:51:26.186Z,100535.88
2022-08-10T18:54:00.601Z,100539.09
2022-08-10T18:56:48.999Z,100538.56
2022-08-10T18:59:33.553Z,100536.38
2022-08-10T19:02:14.749Z,100536.09
2022-08-10T19:05:04.374Z,100536.50
2022-08-10T19:07:47.163Z,100541.72
2022-08-10T19:10:28.686Z,100550.75
2022-08-10T19:13:02.271Z,100547.53
2022-08-10T19:15:43.788Z,100554.47
2022-08-10T19:18:23.865Z,100554.97
2022-08-10T19:20:59.190Z,100553.97
2022-08-10T19:23:40.667Z,100558.16
2022-08-10T19:26:43.901Z,100560.84
2022-08-10T19:30:09.588Z,100563.19
2022-08-10T19:32:21.592Z,100560.19
2022-08-10T19:34:59.927Z,100556.28
2022-08-10T19:37:38.508Z,100557.78
2022-08-10T19:40:44.807Z,100564.22
2022-08-10T19:43:30.888Z,100568.16
2022-08-10T19:46:15.160Z,100569.59
2022-08-10T19:48:53.527Z,100568.28
2022-08-10T19:51:27.307Z,100568.84
2022-08-10T19:54:03.414Z,100567.06
2022-08-10T19:56:44.057Z,100567.41
2022-08-10T20:00:16.088Z,100555.91
2022-08-10T20:02:22.586Z,100558.44
2022-08-10T20:05:02.622Z,100568.50
2022-08-10T20:07:37.256Z,100575.16
2022-08-10T20:10:16.318Z,100568.81
2022-08-10T20:12:51.480Z,100566.88
2022-08-10T20:15:29.130Z,100569.63
2022-08-10T20:18:03.022Z,100574.31
2022-08-10T20:20:37.435Z,100576.53
2022-08-10T20:23:18.929Z,100568.44
2022-08-10T20:25:56.448Z,100575.75
2022-08-10T20:28:35.298Z,100574.28
2022-08-10T20:31:11.526Z,100581.09
2022-08-10T20:33:57.402Z,100582.97
2022-08-10T20:36:32.036Z,100580.13
2022-08-10T20:39:13.185Z,100584.28
2022-08-10T20:41:55.602Z,100581.78
2022-08-10T20:44:34.346Z,100585.44
2022-08-10T20:47:07.098Z,100595.22
2022-08-10T20:49:42.562Z,100591.06
2022-08-10T20:52:12.284Z,100591.03
2022-08-10T20:54:45.600Z,100581.44
2022-08-10T20:57:56.173Z,100584.75
2022-08-10T21:00:12.885Z,100586.09
2022-08-10T21:02:54.934Z,100585.59
2022-08-10T21:05:31.521Z,100585.63
2022-08-10T21:08:13.663Z,100583.25
2022-08-10T21:11:01.603Z,100580.78
2022-08-10T21:14:10.751Z,100587.56
2022-08-10T21:16:56.526Z,100578.81
2022-08-10T21:19:41.132Z,100580.44
2022-08-10T21:22:26.250Z,100578.78
2022-08-10T21:25:02.335Z,100580.63
2022-08-10T21:27:55.235Z,100586.09
2022-08-10T21:30:37.837Z,100591.56
2022-08-10T21:33:12.079Z,100587.91
2022-08-10T21:35:45.191Z,100587.72
2022-08-10T21:38:24.195Z,100586.56
2022-08-10T21:41:58.011Z,100587.56
2022-08-10T21:45:04.169Z,100586.91
2022-08-10T21:48:17.695Z,100596.00
2022-08-10T21:51:16.592Z,100588.22
2022-08-10T21:54:18.146Z,100590.63
2022-08-10T21:57:09.640Z,100585.00
2022-08-10T22:00:00.929Z,100582.31
2022-08-10T22:02:50.911Z,100591.88
2022-08-10T22:05:44.633Z,100584.91
2022-08-10T22:08:37.607Z,100586.72
2022-08-10T22:11:28.451Z,100585.03
2022-08-10T22:14:16.250Z,100585.94
2022-08-10T22:17:59.179Z,100590.38
2022-08-10T22:20:24.985Z,100589.88
2022-08-10T22:23:34.905Z,100595.03
2022-08-10T22:26:32.521Z,100596.00
2022-08-10T22:29:23.586Z,100587.25
2022-08-10T22:32:19.838Z,100586.97
2022-08-10T22:35:21.533Z,100588.97
2022-08-10T22:38:16.468Z,100594.25
2022-08-10T22:41:05.531Z,100596.81
2022-08-10T22:43:53.248Z,100596.81
2022-08-10T22:46:43.692Z,100589.63
2022-08-10T22:49:11.125Z,100600.84
2022-08-10T22:51:52.175Z,100595.56
2022-08-10T22:54:42.231Z,100593.75
2022-08-10T22:57:34.968Z,100592.03
2022-08-10T23:00:15.422Z,100606.53
2022-08-10T23:02:51.463Z,100602.41
2022-08-10T23:05:29.708Z,100599.75
2022-08-10T23:08:02.583Z,100600.94
2022-08-10T23:10:38.412Z,100593.03
2022-08-10T23:13:13.778Z,100602.91
2022-08-10T23:16:22.272Z,100602.75
2022-08-10T23:19:09.689Z,100605.81
2022-08-10T23:22:05.094Z,100606.72
2022-08-10T23:24:37.832Z,100604.69
2022-08-10T23:27:12.867Z,100606.66
2022-08-10T23:30:09.352Z,100607.38
2022-08-10T23:32:42.240Z,100605.88
2022-08-10T23:36:04.523Z,100601.81
2022-08-10T23:38:06.043Z,100604.97
2022-08-10T23:40:36.382Z,100589.97
2022-08-10T23:43:06.565Z,100608.28
2022-08-10T23:45:53.970Z,100608.66
2022-08-10T23:48:26.389Z,100598.94
2022-08-10T23:50:59.704Z,100598.53
2022-08-10T23:53:31.549Z,100598.72
2022-08-10T23:56:03.333Z,100600.03
2022-08-10T23:58:38.840Z,100599.50
